DAL8635 KLAX-KDFW
Flight info
| Callsign | DAL8635 |
|---|---|
| Flight time | 2h 29m |
| Altitude | 33000 |
| Route | DOTSS2 CNERY BLH J169 TFD J50 SSO J4 INK GEEKY BOOVE7 |
| Aircraft | A321/M-SDE3FGHIRWY/LB1 |
Departure
| Time | 2026-04-26 21:17 |
|---|---|
| Airport | Los Angeles International Airport (KLAX) |
Arrival
| Time | 2026-04-26 23:46 |
|---|---|
| Airport | Dallas Fort Worth International Airport (KDFW) |
| Time | Latitude | Longitude | Altitude | Speed | Heading |
|---|---|---|---|---|---|
| 2026-04-26 20:42 | 33.94707 | -118.40783 | 93 ft | 0 kts | 163° |
| 2026-04-26 21:08 | 33.94708 | -118.40783 | 93 ft | 1 kts | 163° |
| 2026-04-26 21:08 | 33.94731 | -118.40791 | 94 ft | 3 kts | 163° |
| 2026-04-26 21:09 | 33.94750 | -118.40800 | 94 ft | 4 kts | 135° |
| 2026-04-26 21:09 | 33.94757 | -118.40823 | 94 ft | 3 kts | 82° |
| 2026-04-26 21:09 | 33.94755 | -118.40849 | 93 ft | 0 kts | 82° |
| 2026-04-26 21:12 | 33.94755 | -118.40846 | 92 ft | 3 kts | 82° |
| 2026-04-26 21:13 | 33.94763 | -118.40777 | 95 ft | 11 kts | 82° |
| 2026-04-26 21:13 | 33.94772 | -118.40691 | 93 ft | 10 kts | 83° |
| 2026-04-26 21:13 | 33.94794 | -118.40612 | 94 ft | 11 kts | 41° |
| 2026-04-26 21:13 | 33.94855 | -118.40589 | 94 ft | 7 kts | 39° |
| 2026-04-26 21:14 | 33.94870 | -118.40527 | 94 ft | 9 kts | 83° |
| 2026-04-26 21:14 | 33.94877 | -118.40455 | 97 ft | 8 kts | 83° |
| 2026-04-26 21:14 | 33.94886 | -118.40379 | 94 ft | 13 kts | 82° |
| 2026-04-26 21:14 | 33.94899 | -118.40236 | 94 ft | 18 kts | 84° |
| 2026-04-26 21:15 | 33.94915 | -118.40093 | 95 ft | 17 kts | 83° |
| 2026-04-26 21:15 | 33.94929 | -118.39962 | 93 ft | 15 kts | 77° |
| 2026-04-26 21:15 | 33.94948 | -118.39928 | 93 ft | 0 kts | 40° |
| 2026-04-26 21:15 | 33.94974 | -118.39916 | 95 ft | 9 kts | 14° |
| 2026-04-26 21:16 | 33.95033 | -118.39934 | 93 ft | 9 kts | 306° |
| 2026-04-26 21:16 | 33.95038 | -118.40000 | 95 ft | 19 kts | 263° |
| 2026-04-26 21:16 | 33.95005 | -118.40313 | 99 ft | 66 kts | 262° |
| 2026-04-26 21:16 | 33.94924 | -118.41089 | 98 ft | 118 kts | 262° |
| 2026-04-26 21:17 | 33.94804 | -118.42238 | 128 ft | 154 kts | 262° |
| 2026-04-26 21:17 | 33.94681 | -118.43519 | 760 ft | 152 kts | 261° |
| 2026-04-26 21:17 | 33.94544 | -118.44780 | 1490 ft | 151 kts | 262° |
| 2026-04-26 21:17 | 33.94386 | -118.46009 | 2158 ft | 145 kts | 261° |
| 2026-04-26 21:18 | 33.94251 | -118.47193 | 2605 ft | 146 kts | 266° |
| 2026-04-26 21:18 | 33.94212 | -118.48491 | 2769 ft | 165 kts | 269° |
| 2026-04-26 21:18 | 33.94189 | -118.49943 | 2913 ft | 180 kts | 269° |
| 2026-04-26 21:18 | 33.94144 | -118.51525 | 3031 ft | 199 kts | 267° |
| 2026-04-26 21:19 | 33.93929 | -118.53267 | 3147 ft | 224 kts | 249° |
| 2026-04-26 21:19 | 33.92941 | -118.54816 | 3482 ft | 247 kts | 219° |
| 2026-04-26 21:19 | 33.91350 | -118.55704 | 4106 ft | 257 kts | 203° |
| 2026-04-26 21:19 | 33.89634 | -118.56383 | 4788 ft | 261 kts | 201° |
| 2026-04-26 21:20 | 33.87892 | -118.57022 | 5506 ft | 263 kts | 201° |
| 2026-04-26 21:20 | 33.86124 | -118.57661 | 6172 ft | 267 kts | 200° |
| 2026-04-26 21:20 | 33.84339 | -118.58315 | 6830 ft | 270 kts | 201° |
| 2026-04-26 21:20 | 33.82533 | -118.58964 | 7468 ft | 272 kts | 201° |
| 2026-04-26 21:21 | 33.80707 | -118.59615 | 8093 ft | 276 kts | 202° |
| 2026-04-26 21:21 | 33.78810 | -118.60105 | 8699 ft | 282 kts | 193° |
| 2026-04-26 21:21 | 33.76849 | -118.60388 | 9345 ft | 286 kts | 192° |
| 2026-04-26 21:21 | 33.74855 | -118.60632 | 9956 ft | 290 kts | 189° |
| 2026-04-26 21:22 | 33.72783 | -118.60369 | 10199 ft | 316 kts | 166° |
| 2026-04-26 21:22 | 33.70785 | -118.59034 | 10336 ft | 344 kts | 142° |
| 2026-04-26 21:22 | 33.69230 | -118.56733 | 10461 ft | 368 kts | 119° |
| 2026-04-26 21:23 | 33.68167 | -118.50616 | 11329 ft | 383 kts | 93° |
| 2026-04-26 21:23 | 33.68000 | -118.47415 | 11900 ft | 386 kts | 93° |
| 2026-04-26 21:23 | 33.67837 | -118.44189 | 12466 ft | 389 kts | 93° |
| 2026-04-26 21:23 | 33.67677 | -118.40934 | 13038 ft | 392 kts | 93° |
| 2026-04-26 21:24 | 33.67516 | -118.37655 | 13609 ft | 395 kts | 93° |
| 2026-04-26 21:24 | 33.67353 | -118.34353 | 14119 ft | 399 kts | 93° |
| 2026-04-26 21:24 | 33.67185 | -118.31017 | 14621 ft | 401 kts | 93° |
| 2026-04-26 21:24 | 33.67011 | -118.27663 | 15126 ft | 404 kts | 93° |
| 2026-04-26 21:25 | 33.66833 | -118.24295 | 15642 ft | 406 kts | 93° |
| 2026-04-26 21:25 | 33.66653 | -118.20910 | 16147 ft | 408 kts | 93° |
| 2026-04-26 21:25 | 33.66474 | -118.17502 | 16646 ft | 410 kts | 93° |
| 2026-04-26 21:25 | 33.66293 | -118.14079 | 17138 ft | 412 kts | 93° |
| 2026-04-26 21:26 | 33.66109 | -118.10640 | 17648 ft | 414 kts | 93° |
| 2026-04-26 21:26 | 33.65926 | -118.07179 | 18130 ft | 417 kts | 93° |
| 2026-04-26 21:26 | 33.65741 | -118.03694 | 18515 ft | 421 kts | 94° |
| 2026-04-26 21:26 | 33.65553 | -118.00175 | 18869 ft | 424 kts | 94° |
| 2026-04-26 21:27 | 33.65361 | -117.96626 | 19233 ft | 427 kts | 94° |
| 2026-04-26 21:27 | 33.65165 | -117.93058 | 19602 ft | 430 kts | 94° |
| 2026-04-26 21:27 | 33.64965 | -117.89460 | 19934 ft | 434 kts | 94° |
| 2026-04-26 21:27 | 33.64760 | -117.85837 | 20269 ft | 437 kts | 95° |
| 2026-04-26 21:28 | 33.64552 | -117.82178 | 20624 ft | 441 kts | 95° |
| 2026-04-26 21:28 | 33.64119 | -117.78535 | 20966 ft | 442 kts | 104° |
| 2026-04-26 21:28 | 33.63294 | -117.74977 | 21321 ft | 444 kts | 109° |
| 2026-04-26 21:28 | 33.62416 | -117.71412 | 21676 ft | 447 kts | 108° |
| 2026-04-26 21:29 | 33.61537 | -117.67817 | 22042 ft | 450 kts | 108° |
| 2026-04-26 21:29 | 33.60653 | -117.64203 | 22418 ft | 453 kts | 109° |
| 2026-04-26 21:29 | 33.59757 | -117.60563 | 22760 ft | 456 kts | 109° |
| 2026-04-26 21:29 | 33.58848 | -117.56904 | 23086 ft | 459 kts | 109° |
| 2026-04-26 21:30 | 33.57929 | -117.53220 | 23433 ft | 462 kts | 109° |
| 2026-04-26 21:30 | 33.57006 | -117.49522 | 23758 ft | 465 kts | 109° |
| 2026-04-26 21:30 | 33.56091 | -117.45843 | 24020 ft | 468 kts | 109° |
| 2026-04-26 21:30 | 33.55146 | -117.42036 | 24243 ft | 472 kts | 109° |
| 2026-04-26 21:31 | 33.54209 | -117.38256 | 24486 ft | 475 kts | 110° |
| 2026-04-26 21:31 | 33.53275 | -117.34493 | 24692 ft | 479 kts | 110° |
| 2026-04-26 21:31 | 33.52318 | -117.30662 | 24969 ft | 482 kts | 110° |
| 2026-04-26 21:31 | 33.51351 | -117.26805 | 25222 ft | 484 kts | 110° |
| 2026-04-26 21:32 | 33.50633 | -117.22833 | 25454 ft | 491 kts | 101° |
| 2026-04-26 21:32 | 33.50405 | -117.18729 | 25674 ft | 497 kts | 93° |
| 2026-04-26 21:32 | 33.50363 | -117.14576 | 25896 ft | 500 kts | 93° |
| 2026-04-26 21:32 | 33.50316 | -117.10403 | 26121 ft | 503 kts | 93° |
| 2026-04-26 21:33 | 33.50262 | -117.06200 | 26347 ft | 506 kts | 93° |
| 2026-04-26 21:33 | 33.50206 | -117.01972 | 26580 ft | 509 kts | 93° |
| 2026-04-26 21:33 | 33.50145 | -116.97723 | 26813 ft | 511 kts | 94° |
| 2026-04-26 21:33 | 33.50079 | -116.93453 | 27049 ft | 514 kts | 94° |
| 2026-04-26 21:34 | 33.50012 | -116.89161 | 27289 ft | 517 kts | 94° |
| 2026-04-26 21:34 | 33.49943 | -116.84839 | 27477 ft | 519 kts | 94° |
| 2026-04-26 21:34 | 33.49872 | -116.80507 | 27720 ft | 522 kts | 94° |
| 2026-04-26 21:34 | 33.49800 | -116.76156 | 27931 ft | 524 kts | 94° |
| 2026-04-26 21:35 | 33.49729 | -116.71781 | 28122 ft | 527 kts | 94° |
| 2026-04-26 21:35 | 33.49658 | -116.67382 | 28308 ft | 529 kts | 94° |
| 2026-04-26 21:35 | 33.49585 | -116.62960 | 28509 ft | 532 kts | 94° |
| 2026-04-26 21:35 | 33.49509 | -116.58523 | 28691 ft | 534 kts | 94° |
| 2026-04-26 21:36 | 33.49431 | -116.54062 | 28814 ft | 537 kts | 94° |
| 2026-04-26 21:36 | 33.49378 | -116.51096 | 28911 ft | 540 kts | 95° |
| 2026-04-26 21:36 | 33.49260 | -116.45058 | 29156 ft | 544 kts | 95° |
| 2026-04-26 21:36 | 33.49168 | -116.40527 | 29334 ft | 546 kts | 95° |
| 2026-04-26 21:37 | 33.49088 | -116.35961 | 29522 ft | 549 kts | 95° |
| 2026-04-26 21:37 | 33.49022 | -116.31389 | 29856 ft | 548 kts | 94° |
| 2026-04-26 21:37 | 33.48967 | -116.26829 | 30031 ft | 548 kts | 94° |
| 2026-04-26 21:37 | 33.48912 | -116.22318 | 30180 ft | 551 kts | 95° |
| 2026-04-26 21:38 | 33.48849 | -116.17716 | 30323 ft | 554 kts | 96° |
| 2026-04-26 21:38 | 33.48775 | -116.13097 | 30499 ft | 555 kts | 95° |
| 2026-04-26 21:38 | 33.48711 | -116.08476 | 30709 ft | 557 kts | 92° |
| 2026-04-26 21:38 | 33.49013 | -116.03835 | 30939 ft | 561 kts | 83° |
| 2026-04-26 21:39 | 33.49848 | -115.99266 | 31162 ft | 563 kts | 73° |
| 2026-04-26 21:39 | 33.51116 | -115.94826 | 31377 ft | 563 kts | 70° |
| 2026-04-26 21:39 | 33.52425 | -115.90402 | 31591 ft | 564 kts | 70° |
| 2026-04-26 21:39 | 33.53728 | -115.85968 | 31820 ft | 564 kts | 71° |
| 2026-04-26 21:40 | 33.55024 | -115.81531 | 32082 ft | 564 kts | 71° |
| 2026-04-26 21:40 | 33.56315 | -115.77089 | 32324 ft | 564 kts | 71° |
| 2026-04-26 21:40 | 33.57602 | -115.72646 | 32573 ft | 564 kts | 71° |
| 2026-04-26 21:40 | 33.58887 | -115.68206 | 32805 ft | 564 kts | 71° |
| 2026-04-26 21:41 | 33.61227 | -115.59299 | 32915 ft | 555 kts | 82° |
| 2026-04-26 21:41 | 33.61657 | -115.54735 | 32900 ft | 548 kts | 94° |
| 2026-04-26 21:41 | 33.61603 | -115.50180 | 32898 ft | 546 kts | 96° |
| 2026-04-26 21:42 | 33.61384 | -115.41083 | 32906 ft | 545 kts | 97° |
| 2026-04-26 21:42 | 33.61143 | -115.32001 | 32900 ft | 545 kts | 97° |
| 2026-04-26 21:43 | 33.60908 | -115.22913 | 32904 ft | 545 kts | 97° |
| 2026-04-26 21:43 | 33.60671 | -115.13822 | 32888 ft | 545 kts | 97° |
| 2026-04-26 21:44 | 33.60430 | -115.04723 | 32892 ft | 545 kts | 97° |
| 2026-04-26 21:44 | 33.60181 | -114.95691 | 32912 ft | 547 kts | 98° |
| 2026-04-26 21:45 | 33.59909 | -114.86524 | 32930 ft | 550 kts | 98° |
| 2026-04-26 21:45 | 33.59638 | -114.77358 | 32931 ft | 550 kts | 98° |
| 2026-04-26 21:46 | 33.59126 | -114.68253 | 32926 ft | 545 kts | 102° |
| 2026-04-26 21:46 | 33.58225 | -114.59247 | 32924 ft | 543 kts | 104° |
| 2026-04-26 21:47 | 33.57274 | -114.50260 | 32916 ft | 544 kts | 103° |
| 2026-04-26 21:47 | 33.56436 | -114.41240 | 32903 ft | 544 kts | 103° |
| 2026-04-26 21:48 | 33.55657 | -114.32213 | 32896 ft | 544 kts | 103° |
| 2026-04-26 21:48 | 33.54852 | -114.23205 | 32889 ft | 543 kts | 103° |
| 2026-04-26 21:49 | 33.54012 | -114.14202 | 32890 ft | 543 kts | 103° |
| 2026-04-26 21:49 | 33.53160 | -114.05210 | 32877 ft | 543 kts | 103° |
| 2026-04-26 21:50 | 33.52455 | -113.97742 | 32883 ft | 543 kts | 103° |
| 2026-04-26 21:50 | 33.51452 | -113.87250 | 32902 ft | 542 kts | 103° |
| 2026-04-26 21:51 | 33.50595 | -113.78273 | 32915 ft | 542 kts | 103° |
| 2026-04-26 21:51 | 33.49737 | -113.69297 | 32923 ft | 542 kts | 104° |
| 2026-04-26 21:52 | 33.48865 | -113.60325 | 32927 ft | 542 kts | 104° |
| 2026-04-26 21:52 | 33.47986 | -113.51353 | 32921 ft | 543 kts | 104° |
| 2026-04-26 21:53 | 33.47095 | -113.42378 | 32856 ft | 543 kts | 104° |
| 2026-04-26 21:53 | 33.45644 | -113.33626 | 32849 ft | 527 kts | 119° |
| 2026-04-26 21:54 | 33.42742 | -113.25707 | 32885 ft | 518 kts | 126° |
| 2026-04-26 21:54 | 33.39664 | -113.17920 | 32880 ft | 517 kts | 126° |
| 2026-04-26 21:55 | 33.36617 | -113.10191 | 32840 ft | 517 kts | 126° |
| 2026-04-26 21:55 | 33.33543 | -113.02429 | 32878 ft | 516 kts | 126° |
| 2026-04-26 21:56 | 33.30472 | -112.94696 | 32892 ft | 515 kts | 126° |
| 2026-04-26 21:56 | 33.27400 | -112.86969 | 32886 ft | 514 kts | 127° |
| 2026-04-26 21:57 | 33.24327 | -112.79252 | 32896 ft | 514 kts | 127° |
| 2026-04-26 21:57 | 33.21254 | -112.71555 | 32895 ft | 514 kts | 127° |
| 2026-04-26 21:58 | 33.18172 | -112.63866 | 32895 ft | 513 kts | 127° |
| 2026-04-26 21:58 | 33.15085 | -112.56185 | 32881 ft | 513 kts | 127° |
| 2026-04-26 21:59 | 33.11999 | -112.48523 | 32845 ft | 512 kts | 127° |
| 2026-04-26 21:59 | 33.08910 | -112.40867 | 32844 ft | 512 kts | 127° |
| 2026-04-26 22:00 | 33.05821 | -112.33209 | 32848 ft | 513 kts | 126° |
| 2026-04-26 22:00 | 33.02720 | -112.25547 | 32853 ft | 513 kts | 126° |
| 2026-04-26 22:01 | 32.99602 | -112.17881 | 32858 ft | 514 kts | 126° |
| 2026-04-26 22:01 | 32.96480 | -112.10222 | 32815 ft | 514 kts | 126° |
| 2026-04-26 22:02 | 32.93890 | -112.03853 | 32895 ft | 515 kts | 126° |
| 2026-04-26 22:02 | 32.90236 | -111.94891 | 32919 ft | 515 kts | 126° |
| 2026-04-26 22:03 | 32.88003 | -111.88260 | 32927 ft | 529 kts | 113° |
| 2026-04-26 22:03 | 32.86121 | -111.79788 | 32937 ft | 530 kts | 112° |
| 2026-04-26 22:04 | 32.84244 | -111.71313 | 32923 ft | 530 kts | 113° |
| 2026-04-26 22:04 | 32.82361 | -111.62858 | 32909 ft | 529 kts | 113° |
| 2026-04-26 22:05 | 32.80467 | -111.54408 | 32818 ft | 529 kts | 112° |
| 2026-04-26 22:05 | 32.78561 | -111.45962 | 32856 ft | 529 kts | 112° |
| 2026-04-26 22:06 | 32.76657 | -111.37522 | 32875 ft | 529 kts | 112° |
| 2026-04-26 22:06 | 32.74751 | -111.29083 | 32885 ft | 529 kts | 112° |
| 2026-04-26 22:07 | 32.72839 | -111.20648 | 32884 ft | 529 kts | 112° |
| 2026-04-26 22:07 | 32.70919 | -111.12224 | 32879 ft | 528 kts | 112° |
| 2026-04-26 22:08 | 32.68998 | -111.03807 | 32865 ft | 528 kts | 112° |
| 2026-04-26 22:08 | 32.67073 | -110.95389 | 32853 ft | 528 kts | 113° |
| 2026-04-26 22:09 | 32.65138 | -110.86982 | 32813 ft | 528 kts | 112° |
| 2026-04-26 22:09 | 32.63193 | -110.78578 | 32818 ft | 528 kts | 112° |
| 2026-04-26 22:10 | 32.61244 | -110.70176 | 32820 ft | 529 kts | 112° |
| 2026-04-26 22:10 | 32.59292 | -110.61765 | 32823 ft | 529 kts | 112° |
| 2026-04-26 22:11 | 32.57334 | -110.53362 | 32819 ft | 529 kts | 112° |
| 2026-04-26 22:11 | 32.55367 | -110.44952 | 32815 ft | 529 kts | 113° |
| 2026-04-26 22:12 | 32.53394 | -110.36544 | 32818 ft | 530 kts | 113° |
| 2026-04-26 22:12 | 32.51419 | -110.28153 | 32812 ft | 528 kts | 112° |
| 2026-04-26 22:13 | 32.49443 | -110.19780 | 32810 ft | 527 kts | 112° |
| 2026-04-26 22:13 | 32.47474 | -110.11481 | 32801 ft | 527 kts | 112° |
| 2026-04-26 22:14 | 32.45492 | -110.03138 | 32791 ft | 527 kts | 113° |
| 2026-04-26 22:14 | 32.43505 | -109.94786 | 32792 ft | 527 kts | 113° |
| 2026-04-26 22:15 | 32.41508 | -109.86448 | 32783 ft | 527 kts | 113° |
| 2026-04-26 22:15 | 32.39489 | -109.78053 | 32763 ft | 527 kts | 113° |
| 2026-04-26 22:16 | 32.37494 | -109.69783 | 32764 ft | 526 kts | 113° |
| 2026-04-26 22:16 | 32.35482 | -109.61459 | 32744 ft | 527 kts | 113° |
| 2026-04-26 22:17 | 32.33469 | -109.53137 | 32753 ft | 526 kts | 113° |
| 2026-04-26 22:17 | 32.31447 | -109.44822 | 32740 ft | 526 kts | 113° |
| 2026-04-26 22:18 | 32.29417 | -109.36518 | 32731 ft | 526 kts | 113° |
| 2026-04-26 22:18 | 32.27393 | -109.28220 | 32735 ft | 527 kts | 111° |
| 2026-04-26 22:19 | 32.26293 | -109.19581 | 32728 ft | 535 kts | 101° |
| 2026-04-26 22:19 | 32.25475 | -109.10854 | 32718 ft | 534 kts | 102° |
| 2026-04-26 22:20 | 32.24627 | -109.02135 | 32719 ft | 534 kts | 102° |
| 2026-04-26 22:20 | 32.23781 | -108.93414 | 32708 ft | 534 kts | 102° |
| 2026-04-26 22:21 | 32.22941 | -108.84698 | 32714 ft | 534 kts | 101° |
| 2026-04-26 22:21 | 32.22087 | -108.75968 | 32714 ft | 535 kts | 102° |
| 2026-04-26 22:22 | 32.21662 | -108.71665 | 32903 ft | 534 kts | 102° |
| 2026-04-26 22:22 | 32.21226 | -108.67255 | 32902 ft | 534 kts | 102° |
| 2026-04-26 22:22 | 32.20374 | -108.58619 | 32868 ft | 533 kts | 102° |
| 2026-04-26 22:23 | 32.19508 | -108.49934 | 32823 ft | 533 kts | 102° |
| 2026-04-26 22:23 | 32.18635 | -108.41250 | 32748 ft | 532 kts | 102° |
| 2026-04-26 22:24 | 32.17759 | -108.32583 | 32705 ft | 531 kts | 102° |
| 2026-04-26 22:24 | 32.16874 | -108.23931 | 32699 ft | 531 kts | 102° |
| 2026-04-26 22:25 | 32.15981 | -108.15282 | 32693 ft | 531 kts | 102° |
| 2026-04-26 22:25 | 32.15083 | -108.06637 | 32693 ft | 531 kts | 102° |
| 2026-04-26 22:26 | 32.14185 | -107.98000 | 32686 ft | 530 kts | 102° |
| 2026-04-26 22:26 | 32.13282 | -107.89358 | 32687 ft | 530 kts | 102° |
| 2026-04-26 22:27 | 32.12376 | -107.80727 | 32819 ft | 530 kts | 102° |
| 2026-04-26 22:27 | 32.11465 | -107.72096 | 32812 ft | 530 kts | 103° |
| 2026-04-26 22:28 | 32.10541 | -107.63467 | 32809 ft | 530 kts | 103° |
| 2026-04-26 22:28 | 32.09610 | -107.54855 | 32771 ft | 529 kts | 103° |
| 2026-04-26 22:29 | 32.08672 | -107.46247 | 32726 ft | 529 kts | 103° |
| 2026-04-26 22:29 | 32.07733 | -107.37642 | 32676 ft | 529 kts | 103° |
| 2026-04-26 22:30 | 32.06793 | -107.29049 | 32675 ft | 528 kts | 103° |
| 2026-04-26 22:30 | 32.05849 | -107.20460 | 32706 ft | 528 kts | 103° |
| 2026-04-26 22:31 | 32.04896 | -107.11884 | 32732 ft | 527 kts | 103° |
| 2026-04-26 22:31 | 32.03941 | -107.03315 | 32739 ft | 527 kts | 103° |
| 2026-04-26 22:32 | 32.02988 | -106.94811 | 32755 ft | 527 kts | 103° |
| 2026-04-26 22:32 | 32.02019 | -106.86267 | 32808 ft | 526 kts | 103° |
| 2026-04-26 22:33 | 32.00552 | -106.73463 | 32844 ft | 525 kts | 103° |
| 2026-04-26 22:34 | 31.99580 | -106.64933 | 32847 ft | 525 kts | 103° |
| 2026-04-26 22:34 | 31.98605 | -106.56404 | 32828 ft | 525 kts | 103° |
| 2026-04-26 22:35 | 31.97615 | -106.47883 | 32819 ft | 525 kts | 103° |
| 2026-04-26 22:35 | 31.96626 | -106.39371 | 32846 ft | 525 kts | 103° |
| 2026-04-26 22:36 | 31.95618 | -106.30860 | 32828 ft | 525 kts | 103° |
| 2026-04-26 22:36 | 31.95109 | -106.22256 | 32800 ft | 530 kts | 95° |
| 2026-04-26 22:37 | 31.94970 | -106.13585 | 32764 ft | 530 kts | 95° |
| 2026-04-26 22:37 | 31.94822 | -106.04906 | 32723 ft | 530 kts | 95° |
| 2026-04-26 22:38 | 31.94667 | -105.96225 | 32672 ft | 530 kts | 95° |
| 2026-04-26 22:38 | 31.94519 | -105.87542 | 32685 ft | 531 kts | 95° |
| 2026-04-26 22:39 | 31.94365 | -105.78851 | 32699 ft | 531 kts | 95° |
| 2026-04-26 22:39 | 31.94205 | -105.70231 | 32691 ft | 530 kts | 95° |
| 2026-04-26 22:40 | 31.94031 | -105.61548 | 32681 ft | 530 kts | 95° |
| 2026-04-26 22:40 | 31.93852 | -105.52872 | 32685 ft | 530 kts | 95° |
| 2026-04-26 22:41 | 31.93667 | -105.44192 | 32678 ft | 530 kts | 95° |
| 2026-04-26 22:41 | 31.93486 | -105.35520 | 32656 ft | 530 kts | 95° |
| 2026-04-26 22:42 | 31.93294 | -105.26850 | 32659 ft | 530 kts | 95° |
| 2026-04-26 22:42 | 31.93104 | -105.18177 | 32665 ft | 530 kts | 95° |
| 2026-04-26 22:43 | 31.92912 | -105.09499 | 32670 ft | 530 kts | 95° |
| 2026-04-26 22:43 | 31.92726 | -105.00822 | 32681 ft | 530 kts | 95° |
| 2026-04-26 22:44 | 31.92529 | -104.92148 | 32657 ft | 530 kts | 95° |
| 2026-04-26 22:44 | 31.92319 | -104.83482 | 32677 ft | 529 kts | 95° |
| 2026-04-26 22:45 | 31.92103 | -104.74836 | 32689 ft | 528 kts | 95° |
| 2026-04-26 22:45 | 31.91886 | -104.66253 | 32688 ft | 528 kts | 95° |
| 2026-04-26 22:46 | 31.91660 | -104.57618 | 32681 ft | 528 kts | 95° |
| 2026-04-26 22:46 | 31.91438 | -104.48982 | 32668 ft | 528 kts | 95° |
| 2026-04-26 22:47 | 31.91203 | -104.40347 | 32670 ft | 528 kts | 95° |
| 2026-04-26 22:47 | 31.90961 | -104.31716 | 32663 ft | 528 kts | 95° |
| 2026-04-26 22:48 | 31.90710 | -104.23084 | 32660 ft | 528 kts | 95° |
| 2026-04-26 22:48 | 31.90457 | -104.14455 | 32655 ft | 528 kts | 95° |
| 2026-04-26 22:49 | 31.90201 | -104.05832 | 32651 ft | 527 kts | 95° |
| 2026-04-26 22:49 | 31.89937 | -103.97215 | 32651 ft | 527 kts | 95° |
| 2026-04-26 22:50 | 31.89673 | -103.88603 | 32647 ft | 527 kts | 95° |
| 2026-04-26 22:50 | 31.89402 | -103.79993 | 32645 ft | 527 kts | 95° |
| 2026-04-26 22:51 | 31.89113 | -103.71378 | 32636 ft | 527 kts | 95° |
| 2026-04-26 22:51 | 31.88869 | -103.64217 | 32633 ft | 527 kts | 95° |
| 2026-04-26 22:52 | 31.88583 | -103.55601 | 32595 ft | 527 kts | 95° |
| 2026-04-26 22:52 | 31.88286 | -103.46980 | 32623 ft | 527 kts | 95° |
| 2026-04-26 22:53 | 31.87981 | -103.38351 | 32623 ft | 528 kts | 95° |
| 2026-04-26 22:53 | 31.87670 | -103.29722 | 32629 ft | 528 kts | 95° |
| 2026-04-26 22:54 | 31.87911 | -103.21076 | 32629 ft | 531 kts | 82° |
| 2026-04-26 22:54 | 31.89077 | -103.12497 | 32644 ft | 532 kts | 82° |
| 2026-04-26 22:55 | 31.90217 | -103.03895 | 32635 ft | 532 kts | 82° |
| 2026-04-26 22:55 | 31.91343 | -102.95283 | 32631 ft | 533 kts | 82° |
| 2026-04-26 22:56 | 31.92463 | -102.86723 | 32637 ft | 533 kts | 82° |
| 2026-04-26 22:56 | 31.93596 | -102.78098 | 32638 ft | 533 kts | 82° |
| 2026-04-26 22:57 | 31.94725 | -102.69468 | 32638 ft | 534 kts | 82° |
| 2026-04-26 22:57 | 31.95848 | -102.60754 | 32647 ft | 535 kts | 82° |
| 2026-04-26 22:58 | 31.96955 | -102.52145 | 32689 ft | 536 kts | 82° |
| 2026-04-26 22:58 | 31.98071 | -102.43473 | 32722 ft | 536 kts | 82° |
| 2026-04-26 22:59 | 31.99179 | -102.34792 | 32752 ft | 535 kts | 82° |
| 2026-04-26 22:59 | 32.00269 | -102.26125 | 32799 ft | 534 kts | 82° |
| 2026-04-26 23:00 | 32.01348 | -102.17468 | 32800 ft | 534 kts | 82° |
| 2026-04-26 23:00 | 32.02428 | -102.08820 | 32798 ft | 533 kts | 82° |
| 2026-04-26 23:01 | 32.03507 | -102.00181 | 32798 ft | 533 kts | 82° |
| 2026-04-26 23:01 | 32.04584 | -101.91547 | 32758 ft | 532 kts | 82° |
| 2026-04-26 23:02 | 32.05648 | -101.82912 | 32727 ft | 532 kts | 82° |
| 2026-04-26 23:02 | 32.06699 | -101.74290 | 32719 ft | 532 kts | 82° |
| 2026-04-26 23:03 | 32.07742 | -101.65658 | 32736 ft | 532 kts | 82° |
| 2026-04-26 23:03 | 32.08778 | -101.57030 | 32796 ft | 531 kts | 82° |
| 2026-04-26 23:04 | 32.09806 | -101.48465 | 32791 ft | 531 kts | 82° |
| 2026-04-26 23:04 | 32.10839 | -101.39852 | 32769 ft | 530 kts | 82° |
| 2026-04-26 23:05 | 32.11868 | -101.31242 | 32736 ft | 530 kts | 82° |
| 2026-04-26 23:05 | 32.12885 | -101.22633 | 32657 ft | 530 kts | 82° |
| 2026-04-26 23:06 | 32.13892 | -101.14023 | 32654 ft | 530 kts | 82° |
| 2026-04-26 23:06 | 32.14894 | -101.05413 | 32654 ft | 529 kts | 82° |
| 2026-04-26 23:07 | 32.15895 | -100.96805 | 32652 ft | 529 kts | 82° |
| 2026-04-26 23:07 | 32.16887 | -100.88195 | 32650 ft | 529 kts | 82° |
| 2026-04-26 23:08 | 32.17869 | -100.79586 | 32650 ft | 529 kts | 82° |
| 2026-04-26 23:08 | 32.18853 | -100.70971 | 32652 ft | 529 kts | 82° |
| 2026-04-26 23:09 | 32.19842 | -100.62360 | 32650 ft | 529 kts | 82° |
| 2026-04-26 23:09 | 32.20823 | -100.53750 | 32643 ft | 529 kts | 82° |
| 2026-04-26 23:10 | 32.21777 | -100.45129 | 32647 ft | 529 kts | 83° |
| 2026-04-26 23:10 | 32.22724 | -100.36518 | 32655 ft | 529 kts | 83° |
| 2026-04-26 23:11 | 32.23676 | -100.27898 | 32654 ft | 529 kts | 83° |
| 2026-04-26 23:11 | 32.24625 | -100.19286 | 32617 ft | 529 kts | 83° |
| 2026-04-26 23:12 | 32.25564 | -100.10683 | 32682 ft | 527 kts | 83° |
| 2026-04-26 23:12 | 32.26493 | -100.02115 | 32685 ft | 525 kts | 83° |
| 2026-04-26 23:13 | 32.27413 | -99.93567 | 32687 ft | 524 kts | 83° |
| 2026-04-26 23:13 | 32.28261 | -99.85067 | 32684 ft | 524 kts | 85° |
| 2026-04-26 23:14 | 32.28760 | -99.76486 | 32702 ft | 523 kts | 88° |
| 2026-04-26 23:14 | 32.29086 | -99.67913 | 32705 ft | 522 kts | 88° |
| 2026-04-26 23:15 | 32.29471 | -99.59344 | 32702 ft | 522 kts | 87° |
| 2026-04-26 23:15 | 32.29927 | -99.50787 | 32703 ft | 522 kts | 86° |
| 2026-04-26 23:16 | 32.30390 | -99.42234 | 32691 ft | 521 kts | 86° |
| 2026-04-26 23:16 | 32.30829 | -99.33687 | 32709 ft | 520 kts | 87° |
| 2026-04-26 23:17 | 32.31245 | -99.25151 | 32710 ft | 520 kts | 87° |
| 2026-04-26 23:17 | 32.31651 | -99.16622 | 32715 ft | 520 kts | 87° |
| 2026-04-26 23:18 | 32.32062 | -99.08153 | 32708 ft | 519 kts | 86° |
| 2026-04-26 23:18 | 32.32472 | -98.99579 | 32719 ft | 519 kts | 86° |
| 2026-04-26 23:19 | 32.32874 | -98.91126 | 32725 ft | 518 kts | 86° |
| 2026-04-26 23:19 | 32.33074 | -98.86870 | 32597 ft | 520 kts | 86° |
| 2026-04-26 23:19 | 32.33277 | -98.82609 | 32339 ft | 518 kts | 86° |
| 2026-04-26 23:19 | 32.33475 | -98.78368 | 32087 ft | 515 kts | 86° |
| 2026-04-26 23:20 | 32.33667 | -98.74160 | 31834 ft | 513 kts | 87° |
| 2026-04-26 23:20 | 32.33860 | -98.69955 | 31594 ft | 510 kts | 86° |
| 2026-04-26 23:20 | 32.34046 | -98.65779 | 31185 ft | 507 kts | 87° |
| 2026-04-26 23:20 | 32.34231 | -98.61611 | 30547 ft | 508 kts | 87° |
| 2026-04-26 23:21 | 32.34418 | -98.57458 | 30075 ft | 505 kts | 87° |
| 2026-04-26 23:21 | 32.34602 | -98.53317 | 29479 ft | 503 kts | 87° |
| 2026-04-26 23:21 | 32.34784 | -98.49212 | 28952 ft | 499 kts | 87° |
| 2026-04-26 23:21 | 32.34965 | -98.45128 | 28419 ft | 494 kts | 87° |
| 2026-04-26 23:22 | 32.35142 | -98.41087 | 27889 ft | 490 kts | 87° |
| 2026-04-26 23:22 | 32.35311 | -98.37076 | 27377 ft | 486 kts | 87° |
| 2026-04-26 23:22 | 32.35475 | -98.33100 | 26877 ft | 482 kts | 86° |
| 2026-04-26 23:22 | 32.35638 | -98.29159 | 26382 ft | 479 kts | 86° |
| 2026-04-26 23:23 | 32.35801 | -98.25240 | 25891 ft | 475 kts | 86° |
| 2026-04-26 23:23 | 32.35966 | -98.21359 | 25411 ft | 471 kts | 86° |
| 2026-04-26 23:23 | 32.36123 | -98.17556 | 24963 ft | 467 kts | 86° |
| 2026-04-26 23:23 | 32.36281 | -98.13687 | 24498 ft | 463 kts | 86° |
| 2026-04-26 23:24 | 32.36431 | -98.09956 | 24050 ft | 459 kts | 86° |
| 2026-04-26 23:24 | 32.36582 | -98.06202 | 23601 ft | 455 kts | 86° |
| 2026-04-26 23:24 | 32.36727 | -98.02477 | 23119 ft | 452 kts | 86° |
| 2026-04-26 23:24 | 32.36870 | -97.98782 | 22648 ft | 447 kts | 86° |
| 2026-04-26 23:25 | 32.37012 | -97.95135 | 22193 ft | 441 kts | 86° |
| 2026-04-26 23:25 | 32.37150 | -97.91533 | 21741 ft | 436 kts | 87° |
| 2026-04-26 23:25 | 32.37283 | -97.87966 | 21269 ft | 432 kts | 86° |
| 2026-04-26 23:25 | 32.37420 | -97.84437 | 20823 ft | 428 kts | 86° |
| 2026-04-26 23:26 | 32.37557 | -97.80929 | 20359 ft | 425 kts | 86° |
| 2026-04-26 23:26 | 32.37695 | -97.77452 | 19890 ft | 422 kts | 87° |
| 2026-04-26 23:26 | 32.37828 | -97.73992 | 19427 ft | 420 kts | 87° |
| 2026-04-26 23:26 | 32.37959 | -97.70551 | 18968 ft | 418 kts | 87° |
| 2026-04-26 23:27 | 32.38195 | -97.67135 | 18501 ft | 416 kts | 79° |
| 2026-04-26 23:27 | 32.38959 | -97.63862 | 18056 ft | 412 kts | 66° |
| 2026-04-26 23:27 | 32.40251 | -97.60874 | 17661 ft | 402 kts | 53° |
| 2026-04-26 23:27 | 32.41335 | -97.59132 | 17496 ft | 394 kts | 46° |
| 2026-04-26 23:28 | 32.43884 | -97.56081 | 16893 ft | 387 kts | 40° |
| 2026-04-26 23:28 | 32.45812 | -97.53887 | 16550 ft | 382 kts | 40° |
| 2026-04-26 23:28 | 32.47712 | -97.51721 | 16377 ft | 379 kts | 40° |
| 2026-04-26 23:28 | 32.49602 | -97.49564 | 16104 ft | 377 kts | 40° |
| 2026-04-26 23:29 | 32.51460 | -97.47443 | 15869 ft | 375 kts | 40° |
| 2026-04-26 23:29 | 32.53339 | -97.45299 | 15589 ft | 374 kts | 40° |
| 2026-04-26 23:29 | 32.55209 | -97.43167 | 15326 ft | 372 kts | 40° |
| 2026-04-26 23:29 | 32.57066 | -97.41046 | 15069 ft | 371 kts | 40° |
| 2026-04-26 23:30 | 32.58927 | -97.38917 | 14471 ft | 376 kts | 41° |
| 2026-04-26 23:30 | 32.60808 | -97.36762 | 14101 ft | 373 kts | 41° |
| 2026-04-26 23:30 | 32.62648 | -97.34645 | 13929 ft | 363 kts | 41° |
| 2026-04-26 23:30 | 32.64431 | -97.32587 | 13811 ft | 352 kts | 41° |
| 2026-04-26 23:31 | 32.66162 | -97.30588 | 13691 ft | 342 kts | 41° |
| 2026-04-26 23:31 | 32.67827 | -97.28666 | 13566 ft | 325 kts | 41° |
| 2026-04-26 23:31 | 32.69434 | -97.26815 | 12921 ft | 321 kts | 41° |
| 2026-04-26 23:31 | 32.71038 | -97.24979 | 12468 ft | 318 kts | 41° |
| 2026-04-26 23:32 | 32.72606 | -97.23183 | 12344 ft | 308 kts | 41° |
| 2026-04-26 23:32 | 32.74125 | -97.21441 | 12213 ft | 299 kts | 41° |
| 2026-04-26 23:32 | 32.75610 | -97.19736 | 11970 ft | 295 kts | 41° |
| 2026-04-26 23:32 | 32.77111 | -97.18170 | 11982 ft | 281 kts | 30° |
| 2026-04-26 23:33 | 32.78842 | -97.17137 | 12021 ft | 277 kts | 12° |
| 2026-04-26 23:33 | 32.80703 | -97.16711 | 11706 ft | 269 kts | 355° |
| 2026-04-26 23:33 | 32.82560 | -97.16701 | 11432 ft | 266 kts | 354° |
| 2026-04-26 23:33 | 32.84407 | -97.16688 | 11168 ft | 264 kts | 354° |
| 2026-04-26 23:34 | 32.86227 | -97.16665 | 10750 ft | 260 kts | 354° |
| 2026-04-26 23:34 | 32.88036 | -97.16643 | 10151 ft | 260 kts | 354° |
| 2026-04-26 23:34 | 32.89845 | -97.16622 | 9592 ft | 260 kts | 355° |
| 2026-04-26 23:34 | 32.91647 | -97.16602 | 8990 ft | 258 kts | 355° |
| 2026-04-26 23:35 | 32.93437 | -97.16584 | 8401 ft | 257 kts | 355° |
| 2026-04-26 23:35 | 32.95217 | -97.16566 | 7842 ft | 255 kts | 356° |
| 2026-04-26 23:35 | 32.96985 | -97.16545 | 7297 ft | 253 kts | 356° |
| 2026-04-26 23:35 | 32.98740 | -97.16521 | 6753 ft | 252 kts | 357° |
| 2026-04-26 23:36 | 33.00494 | -97.16499 | 6209 ft | 251 kts | 357° |
| 2026-04-26 23:36 | 33.02239 | -97.16480 | 5626 ft | 251 kts | 358° |
| 2026-04-26 23:36 | 33.03989 | -97.16463 | 5113 ft | 251 kts | 358° |
| 2026-04-26 23:36 | 33.05737 | -97.16448 | 4999 ft | 252 kts | 359° |
| 2026-04-26 23:37 | 33.07503 | -97.16428 | 5004 ft | 255 kts | 358° |
| 2026-04-26 23:37 | 33.09280 | -97.16405 | 5010 ft | 255 kts | 359° |
| 2026-04-26 23:37 | 33.11053 | -97.16381 | 5013 ft | 255 kts | 359° |
| 2026-04-26 23:37 | 33.12828 | -97.16352 | 5011 ft | 255 kts | 359° |
| 2026-04-26 23:38 | 33.14602 | -97.16320 | 5017 ft | 255 kts | 359° |
| 2026-04-26 23:38 | 33.16352 | -97.16268 | 5013 ft | 255 kts | 2° |
| 2026-04-26 23:38 | 33.18019 | -97.15587 | 5006 ft | 256 kts | 36° |
| 2026-04-26 23:38 | 33.19181 | -97.14001 | 5016 ft | 250 kts | 68° |
| 2026-04-26 23:39 | 33.19555 | -97.12074 | 4861 ft | 235 kts | 94° |
| 2026-04-26 23:39 | 33.19174 | -97.10276 | 4344 ft | 218 kts | 128° |
| 2026-04-26 23:39 | 33.18103 | -97.09154 | 3961 ft | 198 kts | 158° |
| 2026-04-26 23:39 | 33.16869 | -97.08518 | 3581 ft | 190 kts | 162° |
| 2026-04-26 23:40 | 33.15643 | -97.07961 | 3143 ft | 188 kts | 162° |
| 2026-04-26 23:40 | 33.14422 | -97.07402 | 3019 ft | 188 kts | 162° |
| 2026-04-26 23:40 | 33.13278 | -97.06880 | 2998 ft | 164 kts | 162° |
| 2026-04-26 23:40 | 33.12253 | -97.06406 | 3000 ft | 154 kts | 162° |
| 2026-04-26 23:41 | 33.11269 | -97.05945 | 3014 ft | 149 kts | 163° |
| 2026-04-26 23:41 | 33.10306 | -97.05518 | 2992 ft | 146 kts | 174° |
| 2026-04-26 23:41 | 33.09303 | -97.05450 | 3014 ft | 146 kts | 180° |
| 2026-04-26 23:41 | 33.08278 | -97.05414 | 3011 ft | 150 kts | 180° |
| 2026-04-26 23:42 | 33.07243 | -97.05400 | 3012 ft | 148 kts | 180° |
| 2026-04-26 23:42 | 33.05183 | -97.05398 | 3008 ft | 148 kts | 181° |
| 2026-04-26 23:42 | 33.04154 | -97.05401 | 2925 ft | 147 kts | 181° |
| 2026-04-26 23:43 | 33.03128 | -97.05406 | 2776 ft | 148 kts | 181° |
| 2026-04-26 23:43 | 33.02445 | -97.05409 | 2674 ft | 148 kts | 180° |
| 2026-04-26 23:43 | 33.01424 | -97.05414 | 2491 ft | 146 kts | 180° |
| 2026-04-26 23:43 | 33.00415 | -97.05419 | 2318 ft | 144 kts | 180° |
| 2026-04-26 23:44 | 32.99408 | -97.05424 | 2125 ft | 144 kts | 180° |
| 2026-04-26 23:44 | 32.98413 | -97.05429 | 1956 ft | 142 kts | 181° |
| 2026-04-26 23:44 | 32.97421 | -97.05434 | 1763 ft | 143 kts | 182° |
| 2026-04-26 23:44 | 32.96420 | -97.05439 | 1600 ft | 145 kts | 180° |
| 2026-04-26 23:45 | 32.95413 | -97.05444 | 1389 ft | 146 kts | 180° |
| 2026-04-26 23:45 | 32.94406 | -97.05452 | 1256 ft | 146 kts | 179° |
| 2026-04-26 23:45 | 32.93394 | -97.05446 | 1054 ft | 142 kts | 179° |
| 2026-04-26 23:45 | 32.92403 | -97.05453 | 869 ft | 142 kts | 178° |
| 2026-04-26 23:46 | 32.91414 | -97.05468 | 646 ft | 141 kts | 179° |
| 2026-04-26 23:46 | 32.90511 | -97.05468 | 619 ft | 101 kts | 180° |
| 2026-04-26 23:46 | 32.90003 | -97.05473 | 623 ft | 55 kts | 180° |
| 2026-04-26 23:46 | 32.89675 | -97.05469 | 616 ft | 43 kts | 180° |
| 2026-04-26 23:47 | 32.89393 | -97.05476 | 621 ft | 38 kts | 181° |
| 2026-04-26 23:47 | 32.89147 | -97.05475 | 623 ft | 33 kts | 179° |
| 2026-04-26 23:47 | 32.88933 | -97.05474 | 623 ft | 29 kts | 180° |
| 2026-04-26 23:47 | 32.88745 | -97.05474 | 623 ft | 25 kts | 180° |
| 2026-04-26 23:48 | 32.88586 | -97.05473 | 623 ft | 18 kts | 172° |
| 2026-04-26 23:48 | 32.88529 | -97.05391 | 621 ft | 12 kts | 100° |
| 2026-04-26 23:48 | 32.88514 | -97.05295 | 625 ft | 11 kts | 102° |
| 2026-04-26 23:48 | 32.88505 | -97.05233 | 628 ft | 0 kts | 96° |
| 2026-04-26 23:49 | 32.88505 | -97.05231 | 628 ft | 2 kts | 96° |
| 2026-04-26 23:50 | 32.88504 | -97.05126 | 625 ft | 22 kts | 89° |
| 2026-04-26 23:50 | 32.88504 | -97.04938 | 625 ft | 23 kts | 91° |
| 2026-04-26 23:50 | 32.88503 | -97.04754 | 624 ft | 22 kts | 91° |
| 2026-04-26 23:50 | 32.88502 | -97.04577 | 624 ft | 21 kts | 90° |
| 2026-04-26 23:51 | 32.88499 | -97.04406 | 620 ft | 20 kts | 91° |
| 2026-04-26 23:51 | 32.88503 | -97.04241 | 619 ft | 19 kts | 94° |
| 2026-04-26 23:51 | 32.88499 | -97.04084 | 616 ft | 19 kts | 89° |
| 2026-04-26 23:51 | 32.88499 | -97.03932 | 616 ft | 18 kts | 90° |
| 2026-04-26 23:52 | 32.88498 | -97.03787 | 616 ft | 17 kts | 90° |
| 2026-04-26 23:52 | 32.88497 | -97.03648 | 615 ft | 16 kts | 91° |
| 2026-04-26 23:52 | 32.88496 | -97.03516 | 615 ft | 16 kts | 90° |
| 2026-04-26 23:52 | 32.88496 | -97.03391 | 615 ft | 15 kts | 90° |
| 2026-04-26 23:53 | 32.88544 | -97.03319 | 616 ft | 12 kts | 2° |
| 2026-04-26 23:53 | 32.88622 | -97.03322 | 626 ft | 11 kts | 0° |
| 2026-04-26 23:53 | 32.88723 | -97.03321 | 621 ft | 18 kts | 0° |
| 2026-04-26 23:53 | 32.88835 | -97.03322 | 625 ft | 11 kts | 0° |
| 2026-04-26 23:54 | 32.88907 | -97.03321 | 619 ft | 10 kts | 1° |
| 2026-04-26 23:54 | 32.88972 | -97.03320 | 626 ft | 9 kts | 1° |
| 2026-04-26 23:54 | 32.89030 | -97.03319 | 621 ft | 8 kts | 360° |
| 2026-04-26 23:54 | 32.89081 | -97.03319 | 626 ft | 7 kts | 0° |
| 2026-04-26 23:55 | 32.89107 | -97.03347 | 620 ft | 5 kts | 281° |
| 2026-04-26 23:55 | 32.89108 | -97.03407 | 615 ft | 8 kts | 269° |
| 2026-04-26 23:55 | 32.89106 | -97.03437 | 615 ft | 1 kts | 250° |
| 2026-04-26 23:55 | 32.89085 | -97.03489 | 618 ft | 5 kts | 261° |
| 2026-04-26 23:56 | 32.89084 | -97.03500 | 619 ft | 0 kts | 264° |
| 2026-04-26 23:56 | 32.89084 | -97.03501 | 620 ft | 0 kts | 264° |